createdAt,value
2022-08-27T00:00:08.421Z,0
2022-08-27T00:01:12.707Z,0
2022-08-27T00:02:12.442Z,0
2022-08-27T00:03:14.405Z,0
2022-08-27T00:04:16.476Z,0
2022-08-27T00:05:18.364Z,0
2022-08-27T00:06:20.404Z,0
2022-08-27T00:07:22.370Z,0
2022-08-27T00:08:24.385Z,0
2022-08-27T00:09:27.223Z,0
2022-08-27T00:10:28.445Z,0
2022-08-27T00:11:30.383Z,0
2022-08-27T00:12:32.395Z,0
2022-08-27T00:13:34.387Z,0
2022-08-27T00:14:36.388Z,0
2022-08-27T00:15:38.439Z,0
2022-08-27T00:16:40.489Z,0
2022-08-27T00:17:42.417Z,0
2022-08-27T00:18:44.409Z,0
2022-08-27T00:19:46.402Z,0
2022-08-27T00:20:48.411Z,0.24
2022-08-27T00:22:05.761Z,0.09
2022-08-27T00:23:07.402Z,0.28
2022-08-27T00:24:09.395Z,0.14
2022-08-27T00:25:11.409Z,0.2
2022-08-27T00:26:13.408Z,0.19
2022-08-27T00:27:15.446Z,0.1
2022-08-27T00:28:17.476Z,0
2022-08-27T00:29:19.419Z,0
2022-08-27T00:30:21.420Z,0
2022-08-27T00:31:23.673Z,0
2022-08-27T00:32:25.416Z,0
2022-08-27T00:33:27.474Z,0
2022-08-27T00:34:29.401Z,0
2022-08-27T00:35:31.439Z,0
2022-08-27T00:36:33.428Z,0
2022-08-27T00:37:35.467Z,0
2022-08-27T00:38:37.495Z,0
2022-08-27T00:39:39.445Z,0
2022-08-27T00:40:41.428Z,0
2022-08-27T00:41:43.439Z,0
2022-08-27T00:42:45.499Z,0.25
2022-08-27T00:43:47.465Z,0.39
2022-08-27T00:44:49.445Z,0.26
2022-08-27T00:45:51.513Z,0.08
2022-08-27T00:46:53.468Z,0.4
2022-08-27T00:47:55.500Z,0.29
2022-08-27T00:48:57.448Z,0.36
2022-08-27T00:49:59.557Z,0.17
2022-08-27T00:51:01.503Z,0
2022-08-27T00:55:41.490Z,0
2022-08-27T00:56:43.488Z,0
2022-08-27T00:57:45.480Z,0
2022-08-27T00:58:47.466Z,0
2022-08-27T00:59:49.469Z,0
2022-08-27T01:00:51.590Z,0.1
2022-08-27T01:01:53.505Z,0
2022-08-27T01:02:55.499Z,0
2022-08-27T01:03:57.472Z,0
2022-08-27T01:04:59.480Z,0
2022-08-27T01:06:01.687Z,0
2022-08-27T01:07:03.488Z,0
2022-08-27T01:08:05.472Z,0
2022-08-27T01:09:07.499Z,0
2022-08-27T01:10:09.519Z,0
2022-08-27T01:11:11.541Z,0
2022-08-27T01:12:13.486Z,0
2022-08-27T01:13:16.535Z,0
2022-08-27T01:14:18.511Z,0
2022-08-27T01:15:20.549Z,0
2022-08-27T01:16:22.628Z,0
2022-08-27T01:17:24.506Z,0
2022-08-27T01:18:26.524Z,0
2022-08-27T01:19:28.602Z,0
2022-08-27T01:20:30.496Z,0
2022-08-27T01:21:32.523Z,0
2022-08-27T01:22:34.577Z,0
2022-08-27T01:23:36.511Z,0
2022-08-27T01:24:38.510Z,0
2022-08-27T01:25:40.535Z,0
2022-08-27T01:26:42.551Z,0
2022-08-27T01:27:44.585Z,0
2022-08-27T01:28:46.515Z,0
2022-08-27T01:29:48.523Z,0
2022-08-27T01:30:51.463Z,0
2022-08-27T01:31:53.581Z,0
2022-08-27T01:32:56.418Z,0.26
2022-08-27T01:33:58.517Z,0.51
2022-08-27T01:35:00.726Z,0.65
2022-08-27T01:36:02.677Z,0.63
2022-08-27T01:37:04.682Z,0.44
2022-08-27T01:38:08.301Z,0.18
2022-08-27T01:39:08.571Z,0
2022-08-27T01:40:10.627Z,0
2022-08-27T01:41:13.655Z,0.41
2022-08-27T01:42:16.434Z,0.39
2022-08-27T01:43:18.579Z,0.52
2022-08-27T01:44:21.062Z,0.29
2022-08-27T01:45:22.545Z,0.14
2022-08-27T01:46:24.652Z,0
2022-08-27T01:47:28.191Z,0
2022-08-27T01:48:28.593Z,0
2022-08-27T01:49:30.555Z,0.53
2022-08-27T01:50:32.545Z,0.8
2022-08-27T01:51:34.559Z,0.38
2022-08-27T01:52:36.541Z,0.16
2022-08-27T01:53:38.614Z,0
2022-08-27T01:54:40.548Z,0
2022-08-27T01:55:47.633Z,0
2022-08-27T01:56:46.622Z,0.28
2022-08-27T01:57:48.566Z,0.36
2022-08-27T01:58:50.649Z,0.49
2022-08-27T01:59:52.569Z,0.4
2022-08-27T02:00:56.153Z,0
2022-08-27T02:01:56.645Z,0
2022-08-27T02:02:58.575Z,0
2022-08-27T02:04:00.626Z,0
2022-08-27T02:05:02.703Z,0.43
2022-08-27T02:06:04.576Z,0.46
2022-08-27T02:07:06.591Z,0.23
2022-08-27T02:08:08.592Z,0.12
2022-08-27T02:09:10.593Z,0
2022-08-27T02:10:12.605Z,0
2022-08-27T02:11:14.602Z,0
2022-08-27T02:12:16.581Z,0
2022-08-27T02:13:18.599Z,0
2022-08-27T02:14:20.596Z,0
2022-08-27T02:15:22.660Z,0
2022-08-27T02:16:25.379Z,0
2022-08-27T02:17:26.587Z,0
2022-08-27T02:18:28.599Z,0
2022-08-27T02:19:30.658Z,0
2022-08-27T02:20:32.632Z,0
2022-08-27T02:21:34.602Z,0
2022-08-27T02:22:36.698Z,0
2022-08-27T02:23:38.612Z,0
2022-08-27T02:24:40.924Z,0
2022-08-27T02:25:42.647Z,0
2022-08-27T02:26:44.613Z,0
2022-08-27T02:27:46.599Z,0
2022-08-27T02:28:48.621Z,0
2022-08-27T02:29:50.686Z,0
2022-08-27T02:30:53.018Z,0
2022-08-27T02:31:55.367Z,0
2022-08-27T02:32:57.411Z,0
2022-08-27T02:33:59.680Z,0
2022-08-27T02:35:01.912Z,0
2022-08-27T02:36:04.750Z,0
2022-08-27T02:37:07.489Z,0
2022-08-27T02:38:09.908Z,0
2022-08-27T02:39:11.740Z,0
2022-08-27T02:40:13.726Z,0
2022-08-27T02:41:15.661Z,0
2022-08-27T02:42:17.643Z,0
2022-08-27T02:43:23.601Z,0
2022-08-27T02:44:21.787Z,0
2022-08-27T02:45:23.660Z,0
2022-08-27T02:46:25.751Z,0
2022-08-27T02:47:27.655Z,0
2022-08-27T02:48:29.708Z,0
2022-08-27T02:49:31.680Z,0
2022-08-27T02:50:33.656Z,0
2022-08-27T02:51:35.667Z,0
2022-08-27T02:52:38.710Z,0
2022-08-27T02:53:41.694Z,0
2022-08-27T02:54:43.743Z,0
2022-08-27T02:55:46.516Z,0
2022-08-27T02:56:48.778Z,0
2022-08-27T02:57:50.672Z,0
2022-08-27T02:58:52.658Z,0
2022-08-27T02:59:54.697Z,0
2022-08-27T03:00:56.676Z,0
2022-08-27T03:01:58.720Z,0
2022-08-27T03:03:00.726Z,0
2022-08-27T03:04:02.674Z,0
2022-08-27T03:05:04.692Z,0
2022-08-27T03:06:06.689Z,0
2022-08-27T03:07:08.696Z,0
2022-08-27T03:08:10.769Z,0
2022-08-27T03:09:13.764Z,0
2022-08-27T03:10:15.727Z,0
2022-08-27T03:11:17.691Z,0
2022-08-27T03:12:19.689Z,0
2022-08-27T03:13:21.686Z,0
2022-08-27T03:14:24.728Z,0
2022-08-27T03:15:27.526Z,0
2022-08-27T03:16:28.828Z,0
2022-08-27T03:17:30.694Z,0
2022-08-27T03:18:33.495Z,0.28
2022-08-27T03:19:34.732Z,0.37
2022-08-27T03:20:36.699Z,0.24
2022-08-27T03:21:38.697Z,0.33
2022-08-27T03:22:40.698Z,0.14
2022-08-27T03:23:42.702Z,0
2022-08-27T03:24:44.725Z,0.06
2022-08-27T03:25:46.745Z,0.22
2022-08-27T03:26:52.417Z,0
2022-08-27T03:27:51.241Z,0
2022-08-27T03:28:52.721Z,0
2022-08-27T03:29:54.749Z,0
2022-08-27T03:30:56.752Z,0
2022-08-27T03:31:58.723Z,0
2022-08-27T03:33:01.855Z,0
2022-08-27T03:38:35.752Z,0
2022-08-27T03:39:37.860Z,0
2022-08-27T03:40:39.732Z,0
2022-08-27T03:41:45.547Z,0
2022-08-27T03:42:43.755Z,0
2022-08-27T03:43:45.766Z,0
2022-08-27T03:44:47.814Z,0
2022-08-27T03:46:01.177Z,0
2022-08-27T03:46:51.805Z,0
2022-08-27T03:47:54.683Z,0
2022-08-27T03:48:57.279Z,0
2022-08-27T03:49:58.748Z,0
2022-08-27T03:51:00.759Z,0
2022-08-27T03:52:02.781Z,0
2022-08-27T03:53:04.755Z,0
2022-08-27T03:54:06.747Z,0
2022-08-27T03:55:08.758Z,0
2022-08-27T03:56:10.752Z,0
2022-08-27T03:57:12.806Z,0
2022-08-27T03:58:14.755Z,0
2022-08-27T03:59:16.759Z,0
2022-08-27T04:00:18.800Z,0
2022-08-27T04:01:20.898Z,0
2022-08-27T04:02:22.872Z,0
2022-08-27T04:03:24.788Z,0
2022-08-27T04:04:26.815Z,0
2022-08-27T04:05:28.790Z,0
2022-08-27T04:06:30.770Z,0
2022-08-27T04:07:32.809Z,0.09
2022-08-27T04:08:34.778Z,0
2022-08-27T04:09:36.799Z,0
2022-08-27T04:10:38.773Z,0.38
2022-08-27T04:11:40.794Z,0.4
2022-08-27T04:12:42.789Z,0.26
2022-08-27T04:13:44.784Z,0.23
2022-08-27T04:14:46.803Z,0.18
2022-08-27T04:15:48.820Z,0.33
2022-08-27T04:16:50.815Z,0.64
2022-08-27T04:17:52.796Z,1.05
2022-08-27T04:18:54.798Z,0.78
2022-08-27T04:19:56.845Z,0.56
2022-08-27T04:20:58.810Z,0.31
2022-08-27T04:22:00.830Z,0
2022-08-27T04:23:02.792Z,0
2022-08-27T04:24:04.820Z,0.26
2022-08-27T04:25:10.455Z,0.71
2022-08-27T04:26:08.857Z,0.17
2022-08-27T04:27:10.881Z,0.34
2022-08-27T04:28:12.809Z,0.13
2022-08-27T04:29:14.814Z,0.18
2022-08-27T04:30:17.505Z,0.07
2022-08-27T04:31:18.843Z,0
2022-08-27T04:32:20.863Z,0.22
2022-08-27T04:33:22.811Z,0.09
2022-08-27T04:34:24.814Z,0.25
2022-08-27T04:35:26.892Z,0
2022-08-27T04:36:28.832Z,0
2022-08-27T04:37:30.814Z,0
2022-08-27T04:38:32.830Z,0
2022-08-27T04:39:34.845Z,0
2022-08-27T04:40:36.893Z,0
2022-08-27T04:41:38.823Z,0.09
2022-08-27T04:42:40.866Z,0.07
2022-08-27T04:43:42.835Z,0
2022-08-27T04:44:44.841Z,0.2
2022-08-27T04:45:46.895Z,0.13
2022-08-27T04:46:49.187Z,0.13
2022-08-27T04:47:50.884Z,0
2022-08-27T04:48:52.853Z,0
2022-08-27T04:49:55.423Z,0
2022-08-27T04:50:56.919Z,0
2022-08-27T04:51:58.849Z,0
2022-08-27T04:53:00.855Z,0
2022-08-27T04:54:02.884Z,0
2022-08-27T04:55:04.891Z,0
2022-08-27T04:56:06.896Z,0
2022-08-27T04:57:08.868Z,0
2022-08-27T04:58:11.049Z,0
2022-08-27T04:59:12.880Z,0
2022-08-27T05:00:14.883Z,0
2022-08-27T05:01:16.982Z,0
2022-08-27T05:02:18.862Z,0
2022-08-27T05:03:20.862Z,0
2022-08-27T05:04:22.868Z,0
2022-08-27T05:05:24.898Z,0
2022-08-27T05:06:26.937Z,0
2022-08-27T05:07:28.911Z,0
2022-08-27T05:08:30.874Z,0
2022-08-27T05:09:32.867Z,0
2022-08-27T05:10:34.943Z,0
2022-08-27T05:11:36.898Z,0
2022-08-27T05:12:38.875Z,0
2022-08-27T05:13:40.882Z,0
2022-08-27T05:14:42.905Z,0
2022-08-27T05:15:44.960Z,0
2022-08-27T05:16:46.949Z,0
2022-08-27T05:17:48.882Z,0
2022-08-27T05:18:50.890Z,0
2022-08-27T05:19:52.893Z,0
2022-08-27T05:20:54.923Z,0
2022-08-27T05:21:56.938Z,0
2022-08-27T05:22:58.899Z,0
2022-08-27T05:24:00.943Z,0
2022-08-27T05:25:02.949Z,0
2022-08-27T05:26:04.907Z,0
2022-08-27T05:27:06.923Z,0
2022-08-27T05:28:09.031Z,0
2022-08-27T05:29:10.983Z,0
2022-08-27T05:30:12.949Z,0
2022-08-27T05:31:15.063Z,0
2022-08-27T05:32:16.918Z,0
2022-08-27T05:33:18.950Z,0
2022-08-27T05:34:25.595Z,0
2022-08-27T05:35:22.908Z,0
2022-08-27T05:36:24.999Z,0
2022-08-27T05:37:26.918Z,0
2022-08-27T05:38:28.931Z,0
2022-08-27T05:39:30.915Z,0
2022-08-27T05:40:32.994Z,0
2022-08-27T05:41:34.961Z,0
2022-08-27T05:42:36.930Z,0
2022-08-27T05:43:38.949Z,0
2022-08-27T05:44:41.946Z,0
2022-08-27T05:45:42.962Z,0
2022-08-27T05:46:45.022Z,0
2022-08-27T05:47:46.932Z,0
2022-08-27T05:48:48.948Z,0
2022-08-27T05:49:50.944Z,0
2022-08-27T05:50:52.951Z,0
2022-08-27T05:51:55.021Z,0
2022-08-27T05:52:56.942Z,0
2022-08-27T05:53:58.943Z,0
2022-08-27T05:55:00.959Z,0
2022-08-27T05:56:03.006Z,0.57
2022-08-27T05:57:04.989Z,0.35
2022-08-27T05:58:07.086Z,0.27
2022-08-27T05:59:09.034Z,0.23
2022-08-27T06:00:14.808Z,0.2
2022-08-27T06:01:12.956Z,0.18
2022-08-27T06:02:15.000Z,0
2022-08-27T06:03:16.972Z,0
2022-08-27T06:04:19.036Z,0
2022-08-27T06:05:21.069Z,0
2022-08-27T06:06:22.980Z,0.38
2022-08-27T06:07:24.971Z,0.31
2022-08-27T06:08:26.980Z,0.42
2022-08-27T06:09:29.001Z,0.55
2022-08-27T06:10:31.011Z,0.24
2022-08-27T06:11:33.011Z,0.16
2022-08-27T06:12:34.983Z,0.19
2022-08-27T06:13:36.987Z,0.18
2022-08-27T06:14:39.006Z,0.44
2022-08-27T06:15:41.134Z,0.22
2022-08-27T06:16:43.213Z,0
2022-08-27T06:17:44.987Z,0
2022-08-27T06:18:46.996Z,0
2022-08-27T06:19:48.999Z,0
2022-08-27T06:20:51.206Z,0
2022-08-27T06:22:00.562Z,0
2022-08-27T06:22:55.167Z,0.16
2022-08-27T06:23:57.054Z,0
2022-08-27T06:24:59.011Z,0
2022-08-27T06:26:01.154Z,0.12
2022-08-27T06:27:03.135Z,0
2022-08-27T06:28:05.013Z,0
2022-08-27T06:29:07.035Z,0
2022-08-27T06:30:09.072Z,0
2022-08-27T06:31:11.103Z,0
2022-08-27T06:32:13.017Z,0
2022-08-27T06:33:15.073Z,0
2022-08-27T06:34:17.037Z,0.4
2022-08-27T06:35:19.236Z,0.31
2022-08-27T06:36:21.028Z,0.19
2022-08-27T06:37:23.038Z,0.26
2022-08-27T06:38:25.062Z,0
2022-08-27T06:39:27.025Z,0
2022-08-27T06:40:29.378Z,0.51
2022-08-27T06:41:31.069Z,0.42
2022-08-27T06:42:33.055Z,0.3
2022-08-27T06:43:35.071Z,0.61
2022-08-27T06:44:37.056Z,0.42
2022-08-27T06:45:39.040Z,0.33
2022-08-27T06:46:41.180Z,0
2022-08-27T06:47:43.049Z,0.22
2022-08-27T06:48:45.128Z,0.2
2022-08-27T06:49:47.092Z,0.26
2022-08-27T06:50:49.060Z,0.14
2022-08-27T06:51:52.074Z,0.49
2022-08-27T06:52:53.069Z,0.35
2022-08-27T06:53:55.101Z,0.42
2022-08-27T06:54:57.107Z,0.13
2022-08-27T06:55:59.076Z,0.36
2022-08-27T06:57:01.305Z,0.71
2022-08-27T06:58:03.144Z,0.68
2022-08-27T06:59:05.120Z,0.92
2022-08-27T07:00:07.125Z,0.78
2022-08-27T07:01:09.104Z,0.15
2022-08-27T07:02:12.127Z,0.26
2022-08-27T07:03:13.483Z,0
2022-08-27T07:04:15.092Z,0.15
2022-08-27T07:05:17.085Z,0.23
2022-08-27T07:06:19.175Z,0.34
2022-08-27T07:07:26.521Z,0.35
2022-08-27T07:08:23.233Z,0.27
2022-08-27T07:09:25.091Z,0.72
2022-08-27T07:10:27.097Z,0.5
2022-08-27T07:11:29.096Z,0
2022-08-27T07:12:31.272Z,0.33
2022-08-27T07:13:33.325Z,0.17
2022-08-27T07:14:37.908Z,0.55
2022-08-27T07:15:37.175Z,0.46
2022-08-27T07:16:40.853Z,0.27
2022-08-27T07:17:41.121Z,0.6
2022-08-27T07:18:43.117Z,0.4
2022-08-27T07:19:45.148Z,0.52
2022-08-27T07:20:47.113Z,0.55
2022-08-27T07:21:49.114Z,0.1
2022-08-27T07:22:51.121Z,0.33
2022-08-27T07:23:53.200Z,0.42
2022-08-27T07:24:54.477Z,0.07
2022-08-27T07:25:55.514Z,0.4
2022-08-27T07:26:57.136Z,0.4
2022-08-27T07:27:58.678Z,0.17
2022-08-27T07:29:00.147Z,0.45
2022-08-27T07:30:01.862Z,0.17
2022-08-27T07:31:03.212Z,0.76
2022-08-27T07:32:05.136Z,0.29
2022-08-27T07:33:07.135Z,0.47
2022-08-27T07:34:09.186Z,0.37
2022-08-27T07:35:11.157Z,0.79
2022-08-27T07:36:13.159Z,1.05
2022-08-27T07:37:15.148Z,0.46
2022-08-27T07:38:17.157Z,0.41
2022-08-27T07:39:19.165Z,0.69
2022-08-27T07:40:21.186Z,0.25
2022-08-27T07:41:22.527Z,0.18
2022-08-27T07:42:23.526Z,0
2022-08-27T07:43:24.577Z,0.17
2022-08-27T07:44:25.827Z,0.14
2022-08-27T07:45:26.567Z,0.16
2022-08-27T07:46:27.594Z,0.57
2022-08-27T07:47:29.185Z,0.9
2022-08-27T07:48:31.173Z,0.69
2022-08-27T07:49:33.175Z,0.72
2022-08-27T07:50:35.190Z,0.73
2022-08-27T07:51:37.273Z,0.88
2022-08-27T07:52:39.182Z,0.77
2022-08-27T07:53:41.176Z,0.53
2022-08-27T07:54:43.209Z,0.5
2022-08-27T07:55:45.166Z,0.62
2022-08-27T07:56:54.973Z,0.37
2022-08-27T07:57:47.536Z,0.4
2022-08-27T07:58:48.587Z,0.16
2022-08-27T07:59:49.632Z,0.2
2022-08-27T08:00:50.571Z,0.18
2022-08-27T08:01:51.633Z,0.06
2022-08-27T08:02:52.656Z,0.15
2022-08-27T08:03:53.573Z,0.24
2022-08-27T08:04:55.208Z,0.61
2022-08-27T08:05:57.217Z,0.6
2022-08-27T08:06:59.198Z,0.42
2022-08-27T08:08:01.255Z,0.95
2022-08-27T08:09:03.241Z,0.72
2022-08-27T08:10:05.248Z,0.7
2022-08-27T08:11:07.271Z,0.77
2022-08-27T08:12:09.374Z,0.32
2022-08-27T08:13:11.285Z,0.44
2022-08-27T08:14:13.203Z,0.58
2022-08-27T08:15:14.647Z,0.44
2022-08-27T08:16:16.202Z,0.6
2022-08-27T08:17:17.671Z,0.35
2022-08-27T08:18:18.671Z,0.38
2022-08-27T08:19:19.601Z,0.17
2022-08-27T08:20:31.008Z,0.09
2022-08-27T08:21:21.613Z,0.68
2022-08-27T08:22:22.603Z,0.29
2022-08-27T08:23:23.674Z,0.35
2022-08-27T08:24:24.631Z,0.57
2022-08-27T08:25:25.810Z,0.44
2022-08-27T08:26:27.241Z,0.89
2022-08-27T08:27:28.779Z,0.63
2022-08-27T08:28:30.325Z,0.74
2022-08-27T08:29:31.627Z,0.45
2022-08-27T08:30:35.205Z,0.84
2022-08-27T08:31:34.668Z,0.53
2022-08-27T08:32:35.629Z,0.34
2022-08-27T08:33:36.712Z,0.39
2022-08-27T08:34:37.648Z,0.72
2022-08-27T08:35:40.831Z,0.57
2022-08-27T08:36:39.612Z,0.54
2022-08-27T08:37:40.650Z,0.34
2022-08-27T08:38:41.668Z,0.21
2022-08-27T08:39:42.642Z,0.08
2022-08-27T08:40:43.675Z,0.36
2022-08-27T08:41:44.647Z,0.11
2022-08-27T08:42:50.485Z,0.09
2022-08-27T08:43:46.663Z,0.19
2022-08-27T08:44:47.721Z,0.22
2022-08-27T08:45:48.707Z,0.14
2022-08-27T08:46:49.708Z,0.32
2022-08-27T08:47:50.652Z,0.22
2022-08-27T08:48:51.654Z,0.34
2022-08-27T08:49:52.790Z,0.47
2022-08-27T08:50:53.674Z,0.11
2022-08-27T08:51:54.692Z,0.17
2022-08-27T08:52:55.666Z,0.13
2022-08-27T08:53:56.664Z,0.15
2022-08-27T08:54:57.672Z,0.53
2022-08-27T08:55:59.294Z,0.64
2022-08-27T08:57:00.718Z,0.39
2022-08-27T08:58:01.700Z,0.39
2022-08-27T08:59:02.824Z,0.75
2022-08-27T09:00:03.869Z,0.85
2022-08-27T09:01:05.379Z,0.69
2022-08-27T09:02:10.174Z,0.57
2022-08-27T09:03:09.322Z,0.9
2022-08-27T09:04:11.456Z,0.75
2022-08-27T09:05:13.303Z,0.32
2022-08-27T09:06:14.697Z,0.55
2022-08-27T09:07:15.720Z,0.62
2022-08-27T09:08:35.577Z,0.72
2022-08-27T09:09:17.758Z,0.77
2022-08-27T09:10:18.704Z,0.99
2022-08-27T09:11:19.661Z,0.97
2022-08-27T09:12:20.692Z,0.74
2022-08-27T09:13:21.710Z,0.95
2022-08-27T09:14:23.112Z,0.65
2022-08-27T09:15:23.732Z,0.95
2022-08-27T09:16:24.752Z,0.8
2022-08-27T09:17:25.778Z,0.85
2022-08-27T09:18:28.061Z,0.68
2022-08-27T09:19:27.715Z,0.79
2022-08-27T09:20:28.747Z,1.09
2022-08-27T09:21:30.376Z,1.23
2022-08-27T09:22:31.755Z,1.19
2022-08-27T09:23:32.782Z,0.69
2022-08-27T09:24:33.707Z,0.56
2022-08-27T09:25:34.776Z,0.39
2022-08-27T09:26:37.106Z,0.61
2022-08-27T09:27:36.770Z,0.46
2022-08-27T09:28:37.707Z,1
2022-08-27T09:29:38.730Z,1.27
2022-08-27T09:30:40.456Z,0.75
2022-08-27T09:31:41.767Z,0.41
2022-08-27T09:32:42.739Z,0.71
2022-08-27T09:33:56.376Z,0.96
2022-08-27T09:34:45.730Z,0.7
2022-08-27T09:35:47.406Z,0.43
2022-08-27T09:36:49.373Z,0.77
2022-08-27T09:37:51.394Z,1.06
2022-08-27T09:38:54.567Z,1.23
2022-08-27T09:39:55.421Z,1.31
2022-08-27T09:40:56.810Z,1.34
2022-08-27T09:41:57.765Z,1.52
2022-08-27T09:42:59.376Z,0.9
2022-08-27T09:44:01.389Z,1.01
2022-08-27T09:45:03.559Z,0.89
2022-08-27T09:46:05.547Z,0.73
2022-08-27T09:47:07.410Z,1.59
2022-08-27T09:48:09.613Z,1.6
2022-08-27T09:49:11.399Z,0.96
2022-08-27T09:50:13.393Z,0.99
2022-08-27T09:51:15.578Z,1.01
2022-08-27T09:52:16.778Z,0.68
2022-08-27T09:53:18.137Z,0.32
2022-08-27T09:54:18.729Z,0.5
2022-08-27T09:55:19.787Z,0.72
2022-08-27T09:56:20.876Z,0.5
2022-08-27T09:57:22.662Z,0.74
2022-08-27T09:58:24.409Z,1.05
2022-08-27T09:59:26.409Z,0.98
2022-08-27T10:00:28.422Z,1.06
2022-08-27T10:01:30.544Z,1.14
2022-08-27T10:02:32.451Z,1.16
2022-08-27T10:03:33.862Z,0.61
2022-08-27T10:04:37.944Z,0.6
2022-08-27T10:05:37.416Z,0.33
2022-08-27T10:06:39.464Z,0.63
2022-08-27T10:07:41.464Z,0.47
2022-08-27T10:08:43.434Z,1.01
2022-08-27T10:09:45.473Z,0.52
2022-08-27T10:10:47.448Z,0.77
2022-08-27T10:11:49.481Z,0.61
2022-08-27T10:12:51.443Z,0.94
2022-08-27T10:13:53.094Z,0.59
2022-08-27T10:14:54.444Z,0.6
2022-08-27T10:15:56.443Z,0.44
2022-08-27T10:16:58.590Z,0.3
2022-08-27T10:18:01.265Z,0.56
2022-08-27T10:19:02.849Z,0.8
2022-08-27T10:20:04.499Z,0.4
2022-08-27T10:21:07.923Z,0.39
2022-08-27T10:22:08.456Z,0.36
2022-08-27T10:23:10.459Z,0.32
2022-08-27T10:24:12.507Z,0.41
2022-08-27T10:25:14.463Z,0.24
2022-08-27T10:26:15.878Z,0.17
2022-08-27T10:27:16.891Z,0.44
2022-08-27T10:28:17.865Z,0.61
2022-08-27T10:29:18.909Z,0.59
2022-08-27T10:30:19.932Z,0.34
2022-08-27T10:31:21.137Z,0.33
2022-08-27T10:32:21.794Z,0.59
2022-08-27T10:33:23.609Z,0.98
2022-08-27T10:34:23.896Z,0.89
2022-08-27T10:35:25.167Z,1.12
2022-08-27T10:36:26.350Z,0.76
2022-08-27T10:37:31.112Z,0.96
2022-08-27T10:38:27.871Z,1.61
2022-08-27T10:39:28.872Z,1.08
2022-08-27T10:40:29.998Z,0.92
2022-08-27T10:41:30.901Z,0.78
2022-08-27T10:42:31.940Z,0.78
2022-08-27T10:43:32.940Z,1.23
2022-08-27T10:44:33.871Z,0.69
2022-08-27T10:45:34.916Z,0.6
2022-08-27T10:46:36.032Z,0.49
2022-08-27T10:47:36.942Z,0.47
2022-08-27T10:48:37.896Z,0.44
2022-08-27T10:49:38.896Z,0.55
2022-08-27T10:50:39.897Z,0.83
2022-08-27T10:51:40.903Z,0.97
2022-08-27T10:52:41.948Z,0.72
2022-08-27T10:53:42.931Z,0.33
2022-08-27T10:54:43.901Z,0.28
2022-08-27T10:55:44.905Z,0.67
2022-08-27T10:56:45.973Z,0.53
2022-08-27T10:57:56.678Z,0.65
2022-08-27T10:58:47.941Z,0.77
2022-08-27T10:59:48.941Z,0.44
2022-08-27T11:00:50.563Z,1.05
2022-08-27T11:01:51.984Z,0.48
2022-08-27T11:02:52.951Z,0.68
2022-08-27T11:03:53.923Z,0.5
2022-08-27T11:04:54.908Z,0.86
2022-08-27T11:05:55.944Z,1.4
2022-08-27T11:06:56.982Z,1.34
2022-08-27T11:07:57.972Z,1.37
2022-08-27T11:08:59.563Z,1.43
2022-08-27T11:10:01.561Z,1.52
2022-08-27T11:11:23.545Z,1.08
2022-08-27T11:12:19.409Z,1.11
2022-08-27T11:13:04.923Z,0.7
2022-08-27T11:14:05.937Z,0.87
2022-08-27T11:15:09.949Z,1.39
2022-08-27T11:16:08.004Z,0.94
2022-08-27T11:17:08.975Z,1.18
2022-08-27T11:18:10.438Z,1.1
2022-08-27T11:19:11.174Z,1.12
2022-08-27T11:20:12.224Z,0.47
2022-08-27T11:21:12.942Z,0.61
2022-08-27T11:22:14.913Z,1.08
2022-08-27T11:23:14.980Z,1.23
2022-08-27T11:24:15.959Z,0.74
2022-08-27T11:25:17.009Z,1.03
2022-08-27T11:26:18.714Z,1.55
2022-08-27T11:27:20.731Z,0.95
2022-08-27T11:28:22.963Z,0.4
2022-08-27T11:29:22.985Z,0.93
2022-08-27T11:30:24.615Z,1.06
2022-08-27T11:31:26.137Z,0.72
2022-08-27T11:32:26.975Z,0.5
2022-08-27T11:33:28.617Z,1.66
2022-08-27T11:34:30.056Z,1.33
2022-08-27T11:35:32.179Z,1.18
2022-08-27T11:36:33.382Z,1.4
2022-08-27T11:37:34.749Z,1.56
2022-08-27T11:38:36.929Z,1.29
2022-08-27T11:39:38.941Z,1.49
2022-08-27T11:40:40.290Z,1
2022-08-27T11:41:44.635Z,1.36
2022-08-27T11:42:43.585Z,1
2022-08-27T11:43:45.184Z,0.62
2022-08-27T11:44:46.165Z,0.92
2022-08-27T11:45:48.435Z,0.77
2022-08-27T11:46:48.345Z,0.83
2022-08-27T11:47:49.310Z,1.19
2022-08-27T11:48:50.152Z,0.98
2022-08-27T11:49:51.330Z,1.23
2022-08-27T11:50:52.068Z,1.24
2022-08-27T11:51:53.348Z,1.27
2022-08-27T11:52:54.257Z,0.96
2022-08-27T11:53:55.131Z,1.25
2022-08-27T11:54:56.086Z,1.09
2022-08-27T11:55:57.440Z,0.79
2022-08-27T11:56:58.032Z,0.19
2022-08-27T11:57:59.107Z,0.14
2022-08-27T11:59:00.071Z,0.47
2022-08-27T12:00:01.031Z,0.8
2022-08-27T12:01:04.672Z,0.41
2022-08-27T12:02:03.704Z,0.51
2022-08-27T12:03:05.110Z,1.39
2022-08-27T12:04:06.121Z,0.62
2022-08-27T12:05:07.082Z,0.32
2022-08-27T12:06:08.034Z,0.48
2022-08-27T12:07:09.148Z,0.29
2022-08-27T12:08:10.209Z,0.39
2022-08-27T12:09:11.063Z,0.51
2022-08-27T12:10:12.064Z,0.57
2022-08-27T12:11:13.061Z,0.51
2022-08-27T12:12:14.043Z,0.62
2022-08-27T12:13:15.055Z,0.94
2022-08-27T12:14:16.419Z,1.2
2022-08-27T12:15:17.712Z,0.9
2022-08-27T12:16:20.334Z,0.79
2022-08-27T12:17:21.323Z,0.65
2022-08-27T12:18:22.163Z,0.83
2022-08-27T12:19:23.465Z,0.77
2022-08-27T12:20:24.163Z,0.68
2022-08-27T12:21:25.129Z,0.38
2022-08-27T12:22:26.303Z,0.81
2022-08-27T12:23:27.388Z,0.5
2022-08-27T12:24:28.470Z,0.61
2022-08-27T12:25:29.296Z,0.57
2022-08-27T12:26:30.271Z,0.38
2022-08-27T12:27:31.119Z,0.29
2022-08-27T12:28:32.472Z,0.28
2022-08-27T12:29:33.314Z,0.89
2022-08-27T12:30:34.665Z,0.49
2022-08-27T12:31:36.271Z,0.22
2022-08-27T12:32:37.666Z,0.09
2022-08-27T12:33:39.916Z,0.22
2022-08-27T12:34:41.395Z,0.21
2022-08-27T12:35:42.454Z,0
2022-08-27T12:36:43.478Z,0.15
2022-08-27T12:37:45.557Z,0.35
2022-08-27T12:38:49.616Z,0.51
2022-08-27T12:39:49.470Z,0.77
2022-08-27T12:40:50.363Z,0.42
2022-08-27T12:41:52.303Z,0.43
2022-08-27T12:42:56.139Z,0.33
2022-08-27T12:43:57.292Z,0.22
2022-08-27T12:44:58.505Z,0.09
2022-08-27T12:45:59.441Z,0.37
2022-08-27T12:47:00.645Z,0.42
2022-08-27T12:48:02.182Z,0.43
2022-08-27T12:49:09.980Z,0.39
2022-08-27T12:50:05.141Z,0.28
2022-08-27T12:51:09.076Z,0.17
2022-08-27T12:52:13.226Z,0.35
2022-08-27T12:53:16.645Z,0.38
2022-08-27T12:55:24.763Z,0.11
2022-08-27T12:56:28.754Z,0
2022-08-27T12:57:32.986Z,0.14
2022-08-27T12:58:37.028Z,0
2022-08-27T12:59:40.885Z,0.22
2022-08-27T13:00:44.843Z,0.2
2022-08-27T13:01:48.653Z,0.82
2022-08-27T13:02:53.078Z,0.93
2022-08-27T13:03:56.520Z,1.05
2022-08-27T13:05:01.254Z,1.17
2022-08-27T13:06:05.762Z,1.1
2022-08-27T13:07:09.886Z,0.2
2022-08-27T13:08:13.715Z,0.68
2022-08-27T13:09:17.554Z,0.63
2022-08-27T13:10:21.951Z,0.98
2022-08-27T13:11:31.189Z,0.57
2022-08-27T13:12:35.729Z,0.59
2022-08-27T13:13:39.804Z,0.58
2022-08-27T13:14:49.597Z,0.87
2022-08-27T13:15:50.886Z,1.36
2022-08-27T13:16:57.494Z,1.38
2022-08-27T13:18:02.432Z,1.12
2022-08-27T13:19:05.636Z,0.99
2022-08-27T13:20:09.710Z,1.02
2022-08-27T13:21:12.742Z,0.75
2022-08-27T13:22:16.310Z,0.38
2022-08-27T13:23:20.453Z,0.22
2022-08-27T13:24:24.091Z,0.24
2022-08-27T13:25:28.121Z,0.21
2022-08-27T13:26:31.881Z,0.27
2022-08-27T13:27:36.267Z,0.71
2022-08-27T13:28:42.817Z,0.45
2022-08-27T13:29:45.825Z,0.54
2022-08-27T13:30:54.813Z,0.85
2022-08-27T13:31:57.918Z,0.91
2022-08-27T13:34:07.204Z,1.15
2022-08-27T13:35:10.607Z,1.22
2022-08-27T13:36:13.625Z,1.45
2022-08-27T13:37:19.515Z,1.23
2022-08-27T13:38:22.497Z,1.58
2022-08-27T13:39:24.592Z,1.26
2022-08-27T13:40:27.997Z,0.63
2022-08-27T13:41:30.893Z,1.46
2022-08-27T13:42:34.322Z,1.03
2022-08-27T13:43:36.589Z,1.55
2022-08-27T13:44:39.952Z,1.72
2022-08-27T13:45:42.887Z,1.09
2022-08-27T13:46:46.068Z,1.13
2022-08-27T13:47:51.409Z,1.42
2022-08-27T13:48:54.013Z,1.53
2022-08-27T13:53:34.079Z,0.19
2022-08-27T13:54:38.013Z,0.16
2022-08-27T13:55:41.716Z,0.46
2022-08-27T13:56:46.135Z,1.06
2022-08-27T13:57:53.503Z,0.96
2022-08-27T13:58:58.440Z,1.36
2022-08-27T14:00:05.974Z,1.03
2022-08-27T14:01:10.516Z,1.33
2022-08-27T14:02:15.239Z,1.13
2022-08-27T14:04:24.275Z,0.52
2022-08-27T14:05:29.456Z,1.37
2022-08-27T14:06:35.639Z,1.64
2022-08-27T14:07:38.403Z,0.76
2022-08-27T14:08:46.539Z,0.93
2022-08-27T14:09:53.991Z,0.99
2022-08-27T14:10:56.403Z,1.09
2022-08-27T14:12:01.429Z,1.31
2022-08-27T14:13:06.533Z,1.39
2022-08-27T14:14:11.928Z,0.97
2022-08-27T14:15:16.400Z,1.07
2022-08-27T14:16:21.723Z,0.96
2022-08-27T14:17:29.440Z,1.02
2022-08-27T14:18:48.367Z,1.3
2022-08-27T14:19:37.193Z,0.99
2022-08-27T14:20:41.807Z,0.49
2022-08-27T14:21:46.532Z,0.58
2022-08-27T14:22:51.440Z,0.97
2022-08-27T14:23:56.930Z,0.83
2022-08-27T14:26:09.524Z,0.68
2022-08-27T14:27:15.458Z,0.75
2022-08-27T14:28:23.480Z,0.71
2022-08-27T14:29:28.152Z,0.78
2022-08-27T14:30:31.459Z,0.5
2022-08-27T14:31:35.836Z,0.26
2022-08-27T14:32:39.592Z,0.98
2022-08-27T14:33:44.265Z,1.05